sensor_id;sensor_type;location;lat;lon;timestamp;P1;durP1;ratioP1;P2;durP2;ratioP2
20832;SDS011;56075;51.264;7.150;2023-06-10T00:01:17;11.93;;;8.07;;
20832;SDS011;56075;51.264;7.150;2023-06-10T00:03:49;11.20;;;8.40;;
20832;SDS011;56075;51.264;7.150;2023-06-10T00:06:24;12.77;;;8.15;;
20832;SDS011;56075;51.264;7.150;2023-06-10T00:08:55;13.48;;;8.07;;
20832;SDS011;56075;51.264;7.150;2023-06-10T00:11:26;11.88;;;8.43;;
20832;SDS011;56075;51.264;7.150;2023-06-10T00:13:58;12.73;;;8.15;;
20832;SDS011;56075;51.264;7.150;2023-06-10T00:16:29;13.23;;;8.23;;
20832;SDS011;56075;51.264;7.150;2023-06-10T00:19:01;12.65;;;7.93;;
20832;SDS011;56075;51.264;7.150;2023-06-10T00:21:35;14.07;;;8.40;;
20832;SDS011;56075;51.264;7.150;2023-06-10T00:24:10;11.68;;;8.23;;
20832;SDS011;56075;51.264;7.150;2023-06-10T00:26:44;13.27;;;8.63;;
20832;SDS011;56075;51.264;7.150;2023-06-10T00:29:16;13.65;;;8.35;;
20832;SDS011;56075;51.264;7.150;2023-06-10T00:31:47;11.90;;;8.30;;
20832;SDS011;56075;51.264;7.150;2023-06-10T00:34:18;12.45;;;7.95;;
20832;SDS011;56075;51.264;7.150;2023-06-10T00:36:49;13.48;;;8.48;;
20832;SDS011;56075;51.264;7.150;2023-06-10T00:39:21;14.60;;;8.18;;
20832;SDS011;56075;51.264;7.150;2023-06-10T00:41:52;13.13;;;7.53;;
20832;SDS011;56075;51.264;7.150;2023-06-10T00:44:23;12.38;;;7.95;;
20832;SDS011;56075;51.264;7.150;2023-06-10T00:46:54;13.05;;;7.80;;
20832;SDS011;56075;51.264;7.150;2023-06-10T00:49:26;12.63;;;7.88;;
20832;SDS011;56075;51.264;7.150;2023-06-10T00:51:58;12.23;;;7.75;;
20832;SDS011;56075;51.264;7.150;2023-06-10T00:54:29;11.13;;;7.97;;
20832;SDS011;56075;51.264;7.150;2023-06-10T00:57:01;12.43;;;7.93;;
20832;SDS011;56075;51.264;7.150;2023-06-10T00:59:32;11.57;;;7.65;;
20832;SDS011;56075;51.264;7.150;2023-06-10T01:02:04;11.85;;;8.07;;
20832;SDS011;56075;51.264;7.150;2023-06-10T01:04:36;12.10;;;8.23;;
20832;SDS011;56075;51.264;7.150;2023-06-10T01:07:23;11.10;;;7.90;;
20832;SDS011;56075;51.264;7.150;2023-06-10T01:10:03;12.50;;;7.97;;
20832;SDS011;56075;51.264;7.150;2023-06-10T01:12:44;11.75;;;8.45;;
20832;SDS011;56075;51.264;7.150;2023-06-10T01:15:37;13.95;;;8.35;;
20832;SDS011;56075;51.264;7.150;2023-06-10T01:18:10;11.73;;;7.80;;
20832;SDS011;56075;51.264;7.150;2023-06-10T01:20:46;11.85;;;8.18;;
20832;SDS011;56075;51.264;7.150;2023-06-10T01:23:19;14.90;;;8.63;;
20832;SDS011;56075;51.264;7.150;2023-06-10T01:25:54;12.63;;;8.43;;
20832;SDS011;56075;51.264;7.150;2023-06-10T01:28:33;14.98;;;8.60;;
20832;SDS011;56075;51.264;7.150;2023-06-10T01:31:13;13.20;;;8.45;;
20832;SDS011;56075;51.264;7.150;2023-06-10T01:33:51;12.13;;;8.40;;
20832;SDS011;56075;51.264;7.150;2023-06-10T01:36:23;14.07;;;8.80;;
20832;SDS011;56075;51.264;7.150;2023-06-10T01:38:55;12.50;;;8.23;;
20832;SDS011;56075;51.264;7.150;2023-06-10T01:41:28;12.30;;;8.40;;
20832;SDS011;56075;51.264;7.150;2023-06-10T01:43:59;12.35;;;8.50;;
20832;SDS011;56075;51.264;7.150;2023-06-10T01:46:33;11.70;;;8.55;;
20832;SDS011;56075;51.264;7.150;2023-06-10T01:49:04;13.82;;;8.20;;
20832;SDS011;56075;51.264;7.150;2023-06-10T01:51:35;13.60;;;7.93;;
20832;SDS011;56075;51.264;7.150;2023-06-10T01:54:06;13.93;;;8.25;;
20832;SDS011;56075;51.264;7.150;2023-06-10T01:56:38;12.57;;;8.02;;
20832;SDS011;56075;51.264;7.150;2023-06-10T01:59:09;12.13;;;7.88;;
20832;SDS011;56075;51.264;7.150;2023-06-10T02:01:40;12.57;;;8.25;;
20832;SDS011;56075;51.264;7.150;2023-06-10T02:04:14;10.82;;;7.88;;
20832;SDS011;56075;51.264;7.150;2023-06-10T02:06:47;14.20;;;8.63;;
20832;SDS011;56075;51.264;7.150;2023-06-10T02:09:18;11.40;;;8.20;;
20832;SDS011;56075;51.264;7.150;2023-06-10T02:11:49;12.05;;;8.27;;
20832;SDS011;56075;51.264;7.150;2023-06-10T02:14:20;14.00;;;8.10;;
20832;SDS011;56075;51.264;7.150;2023-06-10T02:16:52;13.38;;;8.68;;
20832;SDS011;56075;51.264;7.150;2023-06-10T02:19:26;13.88;;;8.55;;
20832;SDS011;56075;51.264;7.150;2023-06-10T02:21:58;12.20;;;8.23;;
20832;SDS011;56075;51.264;7.150;2023-06-10T02:24:29;11.48;;;7.72;;
20832;SDS011;56075;51.264;7.150;2023-06-10T02:27:00;12.07;;;8.13;;
20832;SDS011;56075;51.264;7.150;2023-06-10T02:29:35;13.13;;;8.18;;
20832;SDS011;56075;51.264;7.150;2023-06-10T02:32:07;13.18;;;8.07;;
20832;SDS011;56075;51.264;7.150;2023-06-10T02:34:38;12.25;;;8.55;;
20832;SDS011;56075;51.264;7.150;2023-06-10T02:37:11;15.23;;;8.57;;
20832;SDS011;56075;51.264;7.150;2023-06-10T02:39:42;15.63;;;8.48;;
20832;SDS011;56075;51.264;7.150;2023-06-10T02:42:15;11.50;;;7.97;;
20832;SDS011;56075;51.264;7.150;2023-06-10T02:44:46;13.65;;;8.27;;
20832;SDS011;56075;51.264;7.150;2023-06-10T02:47:24;14.63;;;7.60;;
20832;SDS011;56075;51.264;7.150;2023-06-10T02:49:55;12.02;;;8.30;;
20832;SDS011;56075;51.264;7.150;2023-06-10T02:52:26;13.80;;;8.32;;
20832;SDS011;56075;51.264;7.150;2023-06-10T02:54:58;11.88;;;8.15;;
20832;SDS011;56075;51.264;7.150;2023-06-10T02:57:29;11.15;;;8.05;;
20832;SDS011;56075;51.264;7.150;2023-06-10T03:00:00;12.55;;;8.25;;
20832;SDS011;56075;51.264;7.150;2023-06-10T03:02:34;13.25;;;8.02;;
20832;SDS011;56075;51.264;7.150;2023-06-10T03:05:08;11.63;;;7.80;;
20832;SDS011;56075;51.264;7.150;2023-06-10T03:07:41;12.43;;;8.32;;
20832;SDS011;56075;51.264;7.150;2023-06-10T03:10:12;13.40;;;8.57;;
20832;SDS011;56075;51.264;7.150;2023-06-10T03:12:45;12.98;;;8.10;;
20832;SDS011;56075;51.264;7.150;2023-06-10T03:15:17;15.32;;;8.63;;
20832;SDS011;56075;51.264;7.150;2023-06-10T03:17:48;13.35;;;8.30;;
20832;SDS011;56075;51.264;7.150;2023-06-10T03:20:19;11.02;;;8.07;;
20832;SDS011;56075;51.264;7.150;2023-06-10T03:22:52;11.05;;;8.27;;
20832;SDS011;56075;51.264;7.150;2023-06-10T03:25:24;12.95;;;8.45;;
20832;SDS011;56075;51.264;7.150;2023-06-10T03:27:58;14.25;;;9.00;;
20832;SDS011;56075;51.264;7.150;2023-06-10T03:30:29;12.18;;;8.38;;
20832;SDS011;56075;51.264;7.150;2023-06-10T03:33:00;11.35;;;8.50;;
20832;SDS011;56075;51.264;7.150;2023-06-10T03:35:33;12.77;;;8.25;;
20832;SDS011;56075;51.264;7.150;2023-06-10T03:38:08;12.50;;;8.18;;
20832;SDS011;56075;51.264;7.150;2023-06-10T03:40:39;13.85;;;8.38;;
20832;SDS011;56075;51.264;7.150;2023-06-10T03:43:11;13.05;;;8.73;;
20832;SDS011;56075;51.264;7.150;2023-06-10T03:45:42;14.65;;;9.15;;
20832;SDS011;56075;51.264;7.150;2023-06-10T03:48:15;11.93;;;8.90;;
20832;SDS011;56075;51.264;7.150;2023-06-10T03:50:51;13.38;;;8.55;;
20832;SDS011;56075;51.264;7.150;2023-06-10T03:53:23;13.32;;;8.90;;
20832;SDS011;56075;51.264;7.150;2023-06-10T03:55:55;11.65;;;8.30;;
20832;SDS011;56075;51.264;7.150;2023-06-10T03:58:29;14.35;;;8.65;;
20832;SDS011;56075;51.264;7.150;2023-06-10T04:01:01;13.80;;;8.20;;
20832;SDS011;56075;51.264;7.150;2023-06-10T04:03:38;12.40;;;8.50;;
20832;SDS011;56075;51.264;7.150;2023-06-10T04:06:09;13.00;;;8.52;;
20832;SDS011;56075;51.264;7.150;2023-06-10T04:08:41;14.15;;;8.82;;
20832;SDS011;56075;51.264;7.150;2023-06-10T04:11:13;13.38;;;8.73;;
20832;SDS011;56075;51.264;7.150;2023-06-10T04:13:44;11.35;;;8.25;;
20832;SDS011;56075;51.264;7.150;2023-06-10T04:16:16;13.80;;;8.88;;
20832;SDS011;56075;51.264;7.150;2023-06-10T04:18:47;14.45;;;8.90;;
20832;SDS011;56075;51.264;7.150;2023-06-10T04:21:19;13.13;;;8.65;;
20832;SDS011;56075;51.264;7.150;2023-06-10T04:23:51;13.13;;;8.30;;
20832;SDS011;56075;51.264;7.150;2023-06-10T04:26:22;14.45;;;8.77;;
20832;SDS011;56075;51.264;7.150;2023-06-10T04:28:53;12.25;;;8.95;;
20832;SDS011;56075;51.264;7.150;2023-06-10T04:31:24;13.13;;;8.45;;
20832;SDS011;56075;51.264;7.150;2023-06-10T04:33:55;13.48;;;9.05;;
20832;SDS011;56075;51.264;7.150;2023-06-10T04:36:26;13.73;;;8.60;;
20832;SDS011;56075;51.264;7.150;2023-06-10T04:39:00;14.95;;;8.65;;
20832;SDS011;56075;51.264;7.150;2023-06-10T04:41:34;13.02;;;8.55;;
20832;SDS011;56075;51.264;7.150;2023-06-10T04:44:05;11.68;;;8.40;;
20832;SDS011;56075;51.264;7.150;2023-06-10T04:46:37;14.52;;;9.07;;
20832;SDS011;56075;51.264;7.150;2023-06-10T04:49:08;16.67;;;8.90;;
20832;SDS011;56075;51.264;7.150;2023-06-10T04:51:40;14.57;;;8.50;;
20832;SDS011;56075;51.264;7.150;2023-06-10T04:54:12;13.60;;;8.38;;
20832;SDS011;56075;51.264;7.150;2023-06-10T04:56:43;15.10;;;9.68;;
20832;SDS011;56075;51.264;7.150;2023-06-10T04:59:14;15.55;;;8.68;;
20832;SDS011;56075;51.264;7.150;2023-06-10T05:01:45;18.10;;;8.75;;
20832;SDS011;56075;51.264;7.150;2023-06-10T05:04:16;13.18;;;8.95;;
20832;SDS011;56075;51.264;7.150;2023-06-10T05:06:47;16.02;;;9.20;;
20832;SDS011;56075;51.264;7.150;2023-06-10T05:09:18;13.95;;;9.25;;
20832;SDS011;56075;51.264;7.150;2023-06-10T05:11:50;13.68;;;8.30;;
20832;SDS011;56075;51.264;7.150;2023-06-10T05:14:21;12.50;;;8.57;;
20832;SDS011;56075;51.264;7.150;2023-06-10T05:16:53;19.30;;;8.68;;
20832;SDS011;56075;51.264;7.150;2023-06-10T05:19:24;14.25;;;8.90;;
20832;SDS011;56075;51.264;7.150;2023-06-10T05:21:55;17.08;;;8.98;;
20832;SDS011;56075;51.264;7.150;2023-06-10T05:24:27;14.35;;;8.63;;
20832;SDS011;56075;51.264;7.150;2023-06-10T05:26:58;14.65;;;8.35;;
20832;SDS011;56075;51.264;7.150;2023-06-10T05:29:30;15.15;;;8.80;;
20832;SDS011;56075;51.264;7.150;2023-06-10T05:32:01;12.98;;;8.38;;
20832;SDS011;56075;51.264;7.150;2023-06-10T05:34:33;20.40;;;9.23;;
20832;SDS011;56075;51.264;7.150;2023-06-10T05:37:05;14.95;;;8.82;;
20832;SDS011;56075;51.264;7.150;2023-06-10T05:39:36;13.77;;;8.48;;
20832;SDS011;56075;51.264;7.150;2023-06-10T05:42:10;14.63;;;8.13;;
20832;SDS011;56075;51.264;7.150;2023-06-10T05:44:41;16.02;;;8.90;;
20832;SDS011;56075;51.264;7.150;2023-06-10T05:47:12;15.57;;;8.13;;
20832;SDS011;56075;51.264;7.150;2023-06-10T05:49:44;15.57;;;7.93;;
20832;SDS011;56075;51.264;7.150;2023-06-10T05:52:16;13.48;;;7.90;;
20832;SDS011;56075;51.264;7.150;2023-06-10T05:54:48;12.38;;;7.88;;
20832;SDS011;56075;51.264;7.150;2023-06-10T05:57:20;13.38;;;7.47;;
20832;SDS011;56075;51.264;7.150;2023-06-10T05:59:52;12.85;;;7.88;;
20832;SDS011;56075;51.264;7.150;2023-06-10T06:02:23;10.75;;;6.68;;
20832;SDS011;56075;51.264;7.150;2023-06-10T06:04:55;13.50;;;7.50;;
20832;SDS011;56075;51.264;7.150;2023-06-10T06:07:26;13.73;;;7.88;;
20832;SDS011;56075;51.264;7.150;2023-06-10T06:09:57;13.15;;;7.55;;
20832;SDS011;56075;51.264;7.150;2023-06-10T06:12:28;10.43;;;7.05;;
20832;SDS011;56075;51.264;7.150;2023-06-10T06:15:00;14.85;;;7.63;;
20832;SDS011;56075;51.264;7.150;2023-06-10T06:17:31;10.05;;;6.43;;
20832;SDS011;56075;51.264;7.150;2023-06-10T06:20:02;9.55;;;6.50;;
20832;SDS011;56075;51.264;7.150;2023-06-10T06:22:35;10.82;;;6.32;;
20832;SDS011;56075;51.264;7.150;2023-06-10T06:25:06;12.95;;;6.82;;
20832;SDS011;56075;51.264;7.150;2023-06-10T06:27:38;12.60;;;6.95;;
20832;SDS011;56075;51.264;7.150;2023-06-10T06:30:09;10.30;;;6.88;;
20832;SDS011;56075;51.264;7.150;2023-06-10T06:32:41;9.77;;;5.85;;
20832;SDS011;56075;51.264;7.150;2023-06-10T06:35:12;11.13;;;6.47;;
20832;SDS011;56075;51.264;7.150;2023-06-10T06:37:43;9.40;;;6.18;;
20832;SDS011;56075;51.264;7.150;2023-06-10T06:40:22;10.65;;;6.38;;
20832;SDS011;56075;51.264;7.150;2023-06-10T06:42:54;10.07;;;6.00;;
20832;SDS011;56075;51.264;7.150;2023-06-10T06:45:48;13.07;;;5.95;;
20832;SDS011;56075;51.264;7.150;2023-06-10T06:48:19;11.20;;;6.00;;
20832;SDS011;56075;51.264;7.150;2023-06-10T06:50:51;9.98;;;6.28;;
20832;SDS011;56075;51.264;7.150;2023-06-10T06:53:22;11.10;;;6.10;;
20832;SDS011;56075;51.264;7.150;2023-06-10T06:55:53;12.00;;;6.07;;
20832;SDS011;56075;51.264;7.150;2023-06-10T06:58:24;9.18;;;5.43;;
20832;SDS011;56075;51.264;7.150;2023-06-10T07:00:56;8.50;;;5.88;;
20832;SDS011;56075;51.264;7.150;2023-06-10T07:03:28;11.45;;;5.97;;
20832;SDS011;56075;51.264;7.150;2023-06-10T07:05:59;9.70;;;5.80;;
20832;SDS011;56075;51.264;7.150;2023-06-10T07:08:32;10.68;;;6.00;;
20832;SDS011;56075;51.264;7.150;2023-06-10T07:11:03;12.70;;;6.40;;
20832;SDS011;56075;51.264;7.150;2023-06-10T07:13:35;11.00;;;5.90;;
20832;SDS011;56075;51.264;7.150;2023-06-10T07:16:06;14.35;;;6.10;;
20832;SDS011;56075;51.264;7.150;2023-06-10T07:18:37;13.07;;;6.80;;
20832;SDS011;56075;51.264;7.150;2023-06-10T07:21:08;10.15;;;6.05;;
20832;SDS011;56075;51.264;7.150;2023-06-10T07:23:42;10.32;;;6.22;;
20832;SDS011;56075;51.264;7.150;2023-06-10T07:26:14;15.20;;;6.40;;
20832;SDS011;56075;51.264;7.150;2023-06-10T07:28:45;8.93;;;6.05;;
20832;SDS011;56075;51.264;7.150;2023-06-10T07:31:16;11.43;;;6.13;;
20832;SDS011;56075;51.264;7.150;2023-06-10T07:33:48;10.65;;;6.40;;
20832;SDS011;56075;51.264;7.150;2023-06-10T07:36:19;10.40;;;5.90;;
20832;SDS011;56075;51.264;7.150;2023-06-10T07:38:50;11.77;;;6.18;;
20832;SDS011;56075;51.264;7.150;2023-06-10T07:41:22;10.43;;;6.43;;
20832;SDS011;56075;51.264;7.150;2023-06-10T07:43:55;11.02;;;5.78;;
20832;SDS011;56075;51.264;7.150;2023-06-10T07:46:26;13.93;;;6.18;;
20832;SDS011;56075;51.264;7.150;2023-06-10T07:48:58;10.98;;;6.07;;
20832;SDS011;56075;51.264;7.150;2023-06-10T07:51:29;10.85;;;6.30;;
20832;SDS011;56075;51.264;7.150;2023-06-10T07:54:01;11.18;;;6.10;;
20832;SDS011;56075;51.264;7.150;2023-06-10T07:56:32;9.00;;;6.03;;
20832;SDS011;56075;51.264;7.150;2023-06-10T07:59:03;9.43;;;6.10;;
20832;SDS011;56075;51.264;7.150;2023-06-10T08:01:34;10.25;;;5.82;;
20832;SDS011;56075;51.264;7.150;2023-06-10T08:04:06;10.23;;;6.30;;
20832;SDS011;56075;51.264;7.150;2023-06-10T08:06:38;11.60;;;6.45;;
20832;SDS011;56075;51.264;7.150;2023-06-10T08:09:09;9.90;;;6.28;;
20832;SDS011;56075;51.264;7.150;2023-06-10T08:11:40;8.52;;;6.40;;
20832;SDS011;56075;51.264;7.150;2023-06-10T08:14:11;9.52;;;6.43;;
20832;SDS011;56075;51.264;7.150;2023-06-10T08:16:43;9.07;;;6.55;;
20832;SDS011;56075;51.264;7.150;2023-06-10T08:19:14;10.90;;;6.40;;
20832;SDS011;56075;51.264;7.150;2023-06-10T08:21:45;8.82;;;6.07;;
20832;SDS011;56075;51.264;7.150;2023-06-10T08:24:16;13.93;;;7.80;;
20832;SDS011;56075;51.264;7.150;2023-06-10T08:26:49;8.85;;;6.30;;
20832;SDS011;56075;51.264;7.150;2023-06-10T08:29:20;12.52;;;6.43;;
20832;SDS011;56075;51.264;7.150;2023-06-10T08:31:51;14.48;;;7.22;;
20832;SDS011;56075;51.264;7.150;2023-06-10T08:34:22;11.65;;;6.40;;
20832;SDS011;56075;51.264;7.150;2023-06-10T08:36:53;10.45;;;6.20;;
20832;SDS011;56075;51.264;7.150;2023-06-10T08:39:26;12.63;;;6.13;;
20832;SDS011;56075;51.264;7.150;2023-06-10T08:42:00;9.35;;;6.20;;
20832;SDS011;56075;51.264;7.150;2023-06-10T08:44:42;9.75;;;6.20;;
20832;SDS011;56075;51.264;7.150;2023-06-10T08:47:16;8.32;;;6.15;;
20832;SDS011;56075;51.264;7.150;2023-06-10T08:49:48;9.38;;;6.50;;
20832;SDS011;56075;51.264;7.150;2023-06-10T08:52:19;9.85;;;6.47;;
20832;SDS011;56075;51.264;7.150;2023-06-10T08:54:56;10.02;;;6.20;;
20832;SDS011;56075;51.264;7.150;2023-06-10T08:57:30;11.10;;;6.28;;
20832;SDS011;56075;51.264;7.150;2023-06-10T09:00:02;12.55;;;6.05;;
20832;SDS011;56075;51.264;7.150;2023-06-10T09:02:34;12.50;;;6.40;;
20832;SDS011;56075;51.264;7.150;2023-06-10T09:05:06;11.48;;;6.15;;
20832;SDS011;56075;51.264;7.150;2023-06-10T09:07:39;7.78;;;6.05;;
20832;SDS011;56075;51.264;7.150;2023-06-10T09:10:10;8.60;;;6.15;;
20832;SDS011;56075;51.264;7.150;2023-06-10T09:12:42;10.43;;;6.57;;
20832;SDS011;56075;51.264;7.150;2023-06-10T09:15:13;9.75;;;6.28;;
20832;SDS011;56075;51.264;7.150;2023-06-10T09:17:45;13.30;;;6.18;;
20832;SDS011;56075;51.264;7.150;2023-06-10T09:20:16;10.27;;;6.43;;
20832;SDS011;56075;51.264;7.150;2023-06-10T09:22:48;13.43;;;6.93;;
20832;SDS011;56075;51.264;7.150;2023-06-10T09:25:20;8.63;;;6.10;;
20832;SDS011;56075;51.264;7.150;2023-06-10T09:28:12;12.32;;;6.35;;
20832;SDS011;56075;51.264;7.150;2023-06-10T09:30:47;10.45;;;6.15;;
20832;SDS011;56075;51.264;7.150;2023-06-10T09:33:18;8.05;;;6.25;;
20832;SDS011;56075;51.264;7.150;2023-06-10T09:35:49;10.48;;;5.90;;
20832;SDS011;56075;51.264;7.150;2023-06-10T09:38:21;9.68;;;5.85;;
20832;SDS011;56075;51.264;7.150;2023-06-10T09:40:53;9.32;;;6.13;;
20832;SDS011;56075;51.264;7.150;2023-06-10T09:43:38;11.15;;;5.97;;
20832;SDS011;56075;51.264;7.150;2023-06-10T09:46:14;10.32;;;5.97;;
20832;SDS011;56075;51.264;7.150;2023-06-10T09:48:48;8.45;;;5.63;;
20832;SDS011;56075;51.264;7.150;2023-06-10T09:51:20;10.85;;;6.13;;
20832;SDS011;56075;51.264;7.150;2023-06-10T09:53:53;10.55;;;6.07;;
20832;SDS011;56075;51.264;7.150;2023-06-10T09:56:36;9.45;;;5.93;;
20832;SDS011;56075;51.264;7.150;2023-06-10T09:59:07;11.57;;;6.10;;
20832;SDS011;56075;51.264;7.150;2023-06-10T10:01:39;9.10;;;5.95;;
20832;SDS011;56075;51.264;7.150;2023-06-10T10:04:11;11.85;;;6.07;;
20832;SDS011;56075;51.264;7.150;2023-06-10T10:06:42;11.43;;;6.93;;
20832;SDS011;56075;51.264;7.150;2023-06-10T10:09:13;10.30;;;6.03;;
20832;SDS011;56075;51.264;7.150;2023-06-10T10:11:44;9.07;;;5.93;;
20832;SDS011;56075;51.264;7.150;2023-06-10T10:14:16;9.10;;;6.03;;
20832;SDS011;56075;51.264;7.150;2023-06-10T10:16:49;10.90;;;6.00;;
20832;SDS011;56075;51.264;7.150;2023-06-10T10:19:23;10.77;;;5.88;;
20832;SDS011;56075;51.264;7.150;2023-06-10T10:22:04;13.43;;;5.97;;
20832;SDS011;56075;51.264;7.150;2023-06-10T10:24:42;9.48;;;5.68;;
20832;SDS011;56075;51.264;7.150;2023-06-10T10:27:27;9.15;;;5.47;;
20832;SDS011;56075;51.264;7.150;2023-06-10T10:30:03;10.38;;;5.80;;
20832;SDS011;56075;51.264;7.150;2023-06-10T10:32:42;8.65;;;5.75;;
20832;SDS011;56075;51.264;7.150;2023-06-10T10:35:21;9.63;;;6.13;;
20832;SDS011;56075;51.264;7.150;2023-06-10T10:37:54;11.10;;;5.78;;
20832;SDS011;56075;51.264;7.150;2023-06-10T10:40:26;8.85;;;5.70;;
20832;SDS011;56075;51.264;7.150;2023-06-10T10:43:00;10.27;;;5.25;;
20832;SDS011;56075;51.264;7.150;2023-06-10T10:45:35;9.48;;;5.90;;
20832;SDS011;56075;51.264;7.150;2023-06-10T10:48:09;10.35;;;5.75;;
20832;SDS011;56075;51.264;7.150;2023-06-10T10:50:42;12.40;;;5.68;;
20832;SDS011;56075;51.264;7.150;2023-06-10T10:53:13;8.55;;;5.70;;
20832;SDS011;56075;51.264;7.150;2023-06-10T10:55:58;9.43;;;5.47;;
20832;SDS011;56075;51.264;7.150;2023-06-10T10:58:35;12.75;;;6.07;;
20832;SDS011;56075;51.264;7.150;2023-06-10T11:01:13;10.88;;;5.60;;
20832;SDS011;56075;51.264;7.150;2023-06-10T11:03:45;8.25;;;5.95;;
20832;SDS011;56075;51.264;7.150;2023-06-10T11:06:17;9.38;;;6.10;;
20832;SDS011;56075;51.264;7.150;2023-06-10T11:08:49;9.77;;;5.90;;
20832;SDS011;56075;51.264;7.150;2023-06-10T11:11:24;11.88;;;6.07;;
20832;SDS011;56075;51.264;7.150;2023-06-10T11:16:38;11.07;;;6.13;;
20832;SDS011;56075;51.264;7.150;2023-06-10T11:19:31;8.60;;;5.65;;
20832;SDS011;56075;51.264;7.150;2023-06-10T11:22:07;8.35;;;5.82;;
20832;SDS011;56075;51.264;7.150;2023-06-10T11:24:40;11.90;;;6.68;;
20832;SDS011;56075;51.264;7.150;2023-06-10T11:27:18;7.68;;;5.72;;
20832;SDS011;56075;51.264;7.150;2023-06-10T11:29:57;9.43;;;5.63;;
20832;SDS011;56075;51.264;7.150;2023-06-10T11:32:29;8.43;;;5.60;;
20832;SDS011;56075;51.264;7.150;2023-06-10T11:35:03;9.32;;;5.60;;
20832;SDS011;56075;51.264;7.150;2023-06-10T11:37:34;10.57;;;6.20;;
20832;SDS011;56075;51.264;7.150;2023-06-10T11:40:06;7.22;;;5.78;;
20832;SDS011;56075;51.264;7.150;2023-06-10T11:42:42;11.48;;;5.93;;
20832;SDS011;56075;51.264;7.150;2023-06-10T11:45:15;9.40;;;5.90;;
20832;SDS011;56075;51.264;7.150;2023-06-10T11:47:56;8.15;;;6.03;;
20832;SDS011;56075;51.264;7.150;2023-06-10T11:50:31;9.38;;;6.35;;
20832;SDS011;56075;51.264;7.150;2023-06-10T11:53:03;10.63;;;6.40;;
20832;SDS011;56075;51.264;7.150;2023-06-10T11:55:41;11.48;;;6.22;;
20832;SDS011;56075;51.264;7.150;2023-06-10T11:58:19;9.95;;;5.72;;
20832;SDS011;56075;51.264;7.150;2023-06-10T12:00:55;11.35;;;6.32;;
20832;SDS011;56075;51.264;7.150;2023-06-10T12:03:36;8.68;;;5.82;;
20832;SDS011;56075;51.264;7.150;2023-06-10T12:06:08;12.43;;;6.18;;
20832;SDS011;56075;51.264;7.150;2023-06-10T12:08:42;9.90;;;5.80;;
20832;SDS011;56075;51.264;7.150;2023-06-10T12:11:14;10.02;;;6.20;;
20832;SDS011;56075;51.264;7.150;2023-06-10T12:13:46;14.52;;;6.60;;
20832;SDS011;56075;51.264;7.150;2023-06-10T12:16:21;9.18;;;6.03;;
20832;SDS011;56075;51.264;7.150;2023-06-10T12:19:00;11.30;;;6.30;;
20832;SDS011;56075;51.264;7.150;2023-06-10T12:21:33;9.00;;;5.68;;
20832;SDS011;56075;51.264;7.150;2023-06-10T12:24:10;8.60;;;6.07;;
20832;SDS011;56075;51.264;7.150;2023-06-10T12:26:42;11.75;;;5.90;;
20832;SDS011;56075;51.264;7.150;2023-06-10T12:29:19;7.82;;;5.53;;
20832;SDS011;56075;51.264;7.150;2023-06-10T12:32:02;9.82;;;6.00;;
20832;SDS011;56075;51.264;7.150;2023-06-10T12:34:37;8.73;;;5.93;;
20832;SDS011;56075;51.264;7.150;2023-06-10T12:37:10;10.77;;;6.22;;
20832;SDS011;56075;51.264;7.150;2023-06-10T12:39:50;8.82;;;6.28;;
20832;SDS011;56075;51.264;7.150;2023-06-10T12:42:25;16.27;;;6.05;;
20832;SDS011;56075;51.264;7.150;2023-06-10T12:44:57;9.98;;;6.00;;
20832;SDS011;56075;51.264;7.150;2023-06-10T12:50:05;9.25;;;5.60;;
20832;SDS011;56075;51.264;7.150;2023-06-10T12:52:37;10.75;;;5.68;;
20832;SDS011;56075;51.264;7.150;2023-06-10T12:55:08;7.53;;;5.60;;
20832;SDS011;56075;51.264;7.150;2023-06-10T12:57:49;8.43;;;5.65;;
20832;SDS011;56075;51.264;7.150;2023-06-10T13:00:21;9.13;;;5.63;;
20832;SDS011;56075;51.264;7.150;2023-06-10T13:02:53;8.00;;;5.55;;
20832;SDS011;56075;51.264;7.150;2023-06-10T13:05:25;8.25;;;5.60;;
20832;SDS011;56075;51.264;7.150;2023-06-10T13:07:56;6.72;;;5.28;;
20832;SDS011;56075;51.264;7.150;2023-06-10T13:10:27;6.85;;;5.15;;
20832;SDS011;56075;51.264;7.150;2023-06-10T13:12:59;10.88;;;5.15;;
20832;SDS011;56075;51.264;7.150;2023-06-10T13:15:32;8.00;;;5.22;;
20832;SDS011;56075;51.264;7.150;2023-06-10T13:18:06;7.70;;;5.05;;
20832;SDS011;56075;51.264;7.150;2023-06-10T13:20:38;8.48;;;5.45;;
20832;SDS011;56075;51.264;7.150;2023-06-10T13:23:10;7.63;;;5.45;;
20832;SDS011;56075;51.264;7.150;2023-06-10T13:25:41;11.40;;;5.60;;
20832;SDS011;56075;51.264;7.150;2023-06-10T13:28:15;10.50;;;5.18;;
20832;SDS011;56075;51.264;7.150;2023-06-10T13:30:46;9.45;;;5.10;;
20832;SDS011;56075;51.264;7.150;2023-06-10T13:33:17;6.53;;;4.80;;
20832;SDS011;56075;51.264;7.150;2023-06-10T13:35:49;9.52;;;5.20;;
20832;SDS011;56075;51.264;7.150;2023-06-10T13:38:20;8.90;;;5.30;;
20832;SDS011;56075;51.264;7.150;2023-06-10T13:40:51;8.45;;;5.38;;
20832;SDS011;56075;51.264;7.150;2023-06-10T13:43:22;9.25;;;5.07;;
20832;SDS011;56075;51.264;7.150;2023-06-10T13:45:53;10.05;;;5.18;;
20832;SDS011;56075;51.264;7.150;2023-06-10T13:48:24;7.88;;;5.68;;
20832;SDS011;56075;51.264;7.150;2023-06-10T13:50:55;7.70;;;5.25;;
20832;SDS011;56075;51.264;7.150;2023-06-10T13:53:27;7.95;;;5.45;;
20832;SDS011;56075;51.264;7.150;2023-06-10T13:55:58;8.80;;;5.53;;
20832;SDS011;56075;51.264;7.150;2023-06-10T13:58:30;8.25;;;5.60;;
20832;SDS011;56075;51.264;7.150;2023-06-10T14:01:01;7.35;;;5.45;;
20832;SDS011;56075;51.264;7.150;2023-06-10T14:03:33;6.75;;;5.53;;
20832;SDS011;56075;51.264;7.150;2023-06-10T14:06:04;9.00;;;5.72;;
20832;SDS011;56075;51.264;7.150;2023-06-10T14:08:35;11.40;;;5.93;;
20832;SDS011;56075;51.264;7.150;2023-06-10T14:11:06;7.07;;;5.38;;
20832;SDS011;56075;51.264;7.150;2023-06-10T14:13:37;8.07;;;5.40;;
20832;SDS011;56075;51.264;7.150;2023-06-10T14:16:09;8.30;;;5.80;;
20832;SDS011;56075;51.264;7.150;2023-06-10T14:18:40;12.35;;;5.55;;
20832;SDS011;56075;51.264;7.150;2023-06-10T14:21:11;10.45;;;6.05;;
20832;SDS011;56075;51.264;7.150;2023-06-10T14:23:43;8.38;;;5.32;;
20832;SDS011;56075;51.264;7.150;2023-06-10T14:26:15;10.27;;;5.50;;
20832;SDS011;56075;51.264;7.150;2023-06-10T14:28:46;9.15;;;5.32;;
20832;SDS011;56075;51.264;7.150;2023-06-10T14:31:18;8.70;;;5.22;;
20832;SDS011;56075;51.264;7.150;2023-06-10T14:33:49;8.60;;;5.32;;
20832;SDS011;56075;51.264;7.150;2023-06-10T14:36:20;10.05;;;5.40;;
20832;SDS011;56075;51.264;7.150;2023-06-10T14:38:51;9.55;;;5.75;;
20832;SDS011;56075;51.264;7.150;2023-06-10T14:41:24;8.63;;;5.63;;
20832;SDS011;56075;51.264;7.150;2023-06-10T14:43:55;10.68;;;5.40;;
20832;SDS011;56075;51.264;7.150;2023-06-10T14:46:26;10.13;;;5.43;;
20832;SDS011;56075;51.264;7.150;2023-06-10T14:48:57;8.23;;;5.47;;
20832;SDS011;56075;51.264;7.150;2023-06-10T14:51:29;11.98;;;5.43;;
20832;SDS011;56075;51.264;7.150;2023-06-10T14:54:01;9.15;;;5.72;;
20832;SDS011;56075;51.264;7.150;2023-06-10T14:56:32;8.95;;;5.70;;
20832;SDS011;56075;51.264;7.150;2023-06-10T14:59:03;9.27;;;5.50;;
20832;SDS011;56075;51.264;7.150;2023-06-10T15:01:35;16.13;;;5.75;;
20832;SDS011;56075;51.264;7.150;2023-06-10T15:04:06;6.82;;;5.50;;
20832;SDS011;56075;51.264;7.150;2023-06-10T15:06:37;12.73;;;5.72;;
20832;SDS011;56075;51.264;7.150;2023-06-10T15:09:09;8.93;;;5.78;;
20832;SDS011;56075;51.264;7.150;2023-06-10T15:11:40;8.27;;;5.78;;
20832;SDS011;56075;51.264;7.150;2023-06-10T15:14:11;9.88;;;5.78;;
20832;SDS011;56075;51.264;7.150;2023-06-10T15:16:43;6.57;;;5.43;;